Disclaimer

Please do not use the information listed here in-flight or in-navigation, as they are not provided to us by the airports but are provided by volunteers, so they might be outdated.

Search


Regions


Airport information page

Radio informations:
Automatic Terminal Information Service (ATIS) - 115.9 MHz
ACAPULCO APP - 119.9 MHz

Airport informations:
Latitude: 16° 45' 25.42" N
Longitude: 099° 45' 14.23" W
Elevation: 16 feet - 5 meters
Operating hours: Remarks
Operating agency: Civil government, landing fees and diplomatic clearance may be required
Timezone: UTC-6(-5DT) - First Sunday in April to the last Saturday in October
Fuel: Jet A1, without icing nhibitor.

100/130 octane gasoline, leaded, MIL-L-5572F (GREEN)

100/130 MIL Spec, low lead, aviation gasoline (BLUE)

Runway information:
06/24 - 5579 x 115 feet< - >1700 x 35 meters
10/28 - 10832 x 148 feet< - >3302 x 45 meters

Recent METARs:
MMAA 191645Z 28003KT 8SM SKC 30/22 A2995 RMK HZY
MMAA 191645Z 28003KT 8SM SKC 30/22 A2995 RMK HZY
MMAA 191743Z 28004KT 8SM SKC 30/24 A2993 RMK SLP128 57014 903 HZY

Airport on the map: